sensor_id;sensor_type;location;lat;lon;timestamp;temperature;humidity
72814;DHT22;60945;48.516;-2.768;2022-08-21T00:01:39;15.40;75.10
72814;DHT22;60945;48.516;-2.768;2022-08-21T00:04:08;15.40;75.00
72814;DHT22;60945;48.516;-2.768;2022-08-21T00:06:34;15.40;75.40
72814;DHT22;60945;48.516;-2.768;2022-08-21T00:09:00;15.50;75.10
72814;DHT22;60945;48.516;-2.768;2022-08-21T00:11:25;15.40;75.20
72814;DHT22;60945;48.516;-2.768;2022-08-21T00:13:52;15.40;74.90
72814;DHT22;60945;48.516;-2.768;2022-08-21T00:16:18;15.50;74.70
72814;DHT22;60945;48.516;-2.768;2022-08-21T00:18:43;15.50;74.30
72814;DHT22;60945;48.516;-2.768;2022-08-21T00:21:10;15.50;74.60
72814;DHT22;60945;48.516;-2.768;2022-08-21T00:23:36;15.40;75.50
72814;DHT22;60945;48.516;-2.768;2022-08-21T00:26:02;15.30;75.70
72814;DHT22;60945;48.516;-2.768;2022-08-21T00:28:27;15.40;75.50
72814;DHT22;60945;48.516;-2.768;2022-08-21T00:30:53;15.40;75.00
72814;DHT22;60945;48.516;-2.768;2022-08-21T00:33:18;15.50;74.40
72814;DHT22;60945;48.516;-2.768;2022-08-21T00:35:44;15.60;73.80
72814;DHT22;60945;48.516;-2.768;2022-08-21T00:38:10;15.50;74.40
72814;DHT22;60945;48.516;-2.768;2022-08-21T00:43:08;15.30;75.40
72814;DHT22;60945;48.516;-2.768;2022-08-21T00:45:34;15.20;75.70
72814;DHT22;60945;48.516;-2.768;2022-08-21T00:47:59;15.20;75.80
72814;DHT22;60945;48.516;-2.768;2022-08-21T00:50:27;15.20;75.90
72814;DHT22;60945;48.516;-2.768;2022-08-21T00:52:53;15.30;75.10
72814;DHT22;60945;48.516;-2.768;2022-08-21T00:55:20;15.30;74.90
72814;DHT22;60945;48.516;-2.768;2022-08-21T00:57:47;15.30;75.40
72814;DHT22;60945;48.516;-2.768;2022-08-21T01:00:15;15.20;75.80
72814;DHT22;60945;48.516;-2.768;2022-08-21T01:02:42;15.20;75.60
72814;DHT22;60945;48.516;-2.768;2022-08-21T01:05:08;15.20;75.70
72814;DHT22;60945;48.516;-2.768;2022-08-21T01:07:33;15.10;76.00
72814;DHT22;60945;48.516;-2.768;2022-08-21T01:09:59;15.20;75.40
72814;DHT22;60945;48.516;-2.768;2022-08-21T01:12:25;15.20;75.50
72814;DHT22;60945;48.516;-2.768;2022-08-21T01:14:50;15.30;75.00
72814;DHT22;60945;48.516;-2.768;2022-08-21T01:17:16;15.40;74.70
72814;DHT22;60945;48.516;-2.768;2022-08-21T01:19:42;15.40;75.00
72814;DHT22;60945;48.516;-2.768;2022-08-21T01:22:08;15.40;75.00
72814;DHT22;60945;48.516;-2.768;2022-08-21T01:24:33;15.50;74.30
72814;DHT22;60945;48.516;-2.768;2022-08-21T01:26:59;15.50;74.70
72814;DHT22;60945;48.516;-2.768;2022-08-21T01:31:53;15.40;74.20
72814;DHT22;60945;48.516;-2.768;2022-08-21T01:34:19;15.40;74.70
72814;DHT22;60945;48.516;-2.768;2022-08-21T01:36:45;15.30;74.70
72814;DHT22;60945;48.516;-2.768;2022-08-21T01:39:12;15.20;75.10
72814;DHT22;60945;48.516;-2.768;2022-08-21T01:41:38;15.30;74.70
72814;DHT22;60945;48.516;-2.768;2022-08-21T01:44:03;15.30;74.80
72814;DHT22;60945;48.516;-2.768;2022-08-21T01:46:29;15.30;74.70
72814;DHT22;60945;48.516;-2.768;2022-08-21T01:48:54;15.30;74.70
72814;DHT22;60945;48.516;-2.768;2022-08-21T01:51:20;15.30;75.00
72814;DHT22;60945;48.516;-2.768;2022-08-21T01:53:45;15.20;75.10
72814;DHT22;60945;48.516;-2.768;2022-08-21T01:56:12;15.20;75.20
72814;DHT22;60945;48.516;-2.768;2022-08-21T01:58:38;15.20;75.20
72814;DHT22;60945;48.516;-2.768;2022-08-21T02:01:04;15.20;75.00
72814;DHT22;60945;48.516;-2.768;2022-08-21T02:03:32;15.30;74.80
72814;DHT22;60945;48.516;-2.768;2022-08-21T02:05:57;15.20;74.90
72814;DHT22;60945;48.516;-2.768;2022-08-21T02:08:23;15.20;75.40
72814;DHT22;60945;48.516;-2.768;2022-08-21T02:10:49;15.20;75.30
72814;DHT22;60945;48.516;-2.768;2022-08-21T02:13:15;15.50;73.60
72814;DHT22;60945;48.516;-2.768;2022-08-21T02:15:41;15.50;73.10
72814;DHT22;60945;48.516;-2.768;2022-08-21T02:18:06;15.60;73.00
72814;DHT22;60945;48.516;-2.768;2022-08-21T02:20:35;15.60;73.40
72814;DHT22;60945;48.516;-2.768;2022-08-21T02:23:01;15.60;73.20
72814;DHT22;60945;48.516;-2.768;2022-08-21T02:25:27;15.60;72.80
72814;DHT22;60945;48.516;-2.768;2022-08-21T02:27:53;15.70;72.80
72814;DHT22;60945;48.516;-2.768;2022-08-21T02:30:26;15.80;72.30
72814;DHT22;60945;48.516;-2.768;2022-08-21T02:32:52;15.80;72.20
72814;DHT22;60945;48.516;-2.768;2022-08-21T02:35:17;15.70;72.80
72814;DHT22;60945;48.516;-2.768;2022-08-21T02:37:48;15.70;72.80
72814;DHT22;60945;48.516;-2.768;2022-08-21T02:40:14;15.80;72.30
72814;DHT22;60945;48.516;-2.768;2022-08-21T02:42:40;15.80;72.80
72814;DHT22;60945;48.516;-2.768;2022-08-21T02:45:06;15.70;73.20
72814;DHT22;60945;48.516;-2.768;2022-08-21T02:47:32;15.80;72.90
72814;DHT22;60945;48.516;-2.768;2022-08-21T02:49:57;15.80;72.80
72814;DHT22;60945;48.516;-2.768;2022-08-21T02:52:23;15.70;72.80
72814;DHT22;60945;48.516;-2.768;2022-08-21T02:54:49;15.60;73.40
72814;DHT22;60945;48.516;-2.768;2022-08-21T02:57:15;15.60;73.40
72814;DHT22;60945;48.516;-2.768;2022-08-21T02:59:40;15.50;73.60
72814;DHT22;60945;48.516;-2.768;2022-08-21T03:02:06;15.40;73.80
72814;DHT22;60945;48.516;-2.768;2022-08-21T03:04:32;15.40;74.20
72814;DHT22;60945;48.516;-2.768;2022-08-21T03:06:57;15.30;74.50
72814;DHT22;60945;48.516;-2.768;2022-08-21T03:09:25;15.30;74.70
72814;DHT22;60945;48.516;-2.768;2022-08-21T03:11:50;15.30;74.70
72814;DHT22;60945;48.516;-2.768;2022-08-21T03:14:17;15.40;74.70
72814;DHT22;60945;48.516;-2.768;2022-08-21T03:16:42;15.30;74.70
72814;DHT22;60945;48.516;-2.768;2022-08-21T03:19:08;15.30;74.80
72814;DHT22;60945;48.516;-2.768;2022-08-21T03:21:33;15.30;75.00
72814;DHT22;60945;48.516;-2.768;2022-08-21T03:23:59;15.40;74.80
72814;DHT22;60945;48.516;-2.768;2022-08-21T03:26:24;15.50;74.60
72814;DHT22;60945;48.516;-2.768;2022-08-21T03:28:50;15.60;74.20
72814;DHT22;60945;48.516;-2.768;2022-08-21T03:31:16;15.60;74.10
72814;DHT22;60945;48.516;-2.768;2022-08-21T03:33:43;15.70;73.90
72814;DHT22;60945;48.516;-2.768;2022-08-21T03:36:09;15.70;73.90
72814;DHT22;60945;48.516;-2.768;2022-08-21T03:38:36;15.70;73.80
72814;DHT22;60945;48.516;-2.768;2022-08-21T03:41:03;15.60;74.30
72814;DHT22;60945;48.516;-2.768;2022-08-21T03:43:29;15.60;74.00
72814;DHT22;60945;48.516;-2.768;2022-08-21T03:45:55;15.70;73.90
72814;DHT22;60945;48.516;-2.768;2022-08-21T03:48:20;15.60;74.80
72814;DHT22;60945;48.516;-2.768;2022-08-21T03:50:46;15.60;74.50
72814;DHT22;60945;48.516;-2.768;2022-08-21T03:53:12;15.60;74.60
72814;DHT22;60945;48.516;-2.768;2022-08-21T03:55:39;15.70;74.10
72814;DHT22;60945;48.516;-2.768;2022-08-21T03:58:04;15.90;73.40
72814;DHT22;60945;48.516;-2.768;2022-08-21T04:00:30;15.90;73.40
72814;DHT22;60945;48.516;-2.768;2022-08-21T04:02:56;15.90;72.90
72814;DHT22;60945;48.516;-2.768;2022-08-21T04:05:21;15.90;73.00
72814;DHT22;60945;48.516;-2.768;2022-08-21T04:07:57;16.00;72.80
72814;DHT22;60945;48.516;-2.768;2022-08-21T04:10:23;15.90;73.00
72814;DHT22;60945;48.516;-2.768;2022-08-21T04:12:49;15.90;73.40
72814;DHT22;60945;48.516;-2.768;2022-08-21T04:15:15;15.90;73.90
72814;DHT22;60945;48.516;-2.768;2022-08-21T04:17:41;15.90;73.30
72814;DHT22;60945;48.516;-2.768;2022-08-21T04:20:07;16.00;72.80
72814;DHT22;60945;48.516;-2.768;2022-08-21T04:22:32;16.10;72.50
72814;DHT22;60945;48.516;-2.768;2022-08-21T04:24:58;16.20;73.30
72814;DHT22;60945;48.516;-2.768;2022-08-21T04:27:23;16.10;73.50
72814;DHT22;60945;48.516;-2.768;2022-08-21T04:29:49;16.20;73.40
72814;DHT22;60945;48.516;-2.768;2022-08-21T04:32:21;16.30;73.20
72814;DHT22;60945;48.516;-2.768;2022-08-21T04:34:46;16.20;73.10
72814;DHT22;60945;48.516;-2.768;2022-08-21T04:37:12;16.20;73.50
72814;DHT22;60945;48.516;-2.768;2022-08-21T04:39:37;16.20;73.60
72814;DHT22;60945;48.516;-2.768;2022-08-21T04:42:03;16.30;73.50
72814;DHT22;60945;48.516;-2.768;2022-08-21T04:44:32;16.30;73.30
72814;DHT22;60945;48.516;-2.768;2022-08-21T04:46:57;16.30;72.90
72814;DHT22;60945;48.516;-2.768;2022-08-21T04:49:23;16.40;73.20
72814;DHT22;60945;48.516;-2.768;2022-08-21T04:51:48;16.40;73.50
72814;DHT22;60945;48.516;-2.768;2022-08-21T04:54:16;16.50;72.60
72814;DHT22;60945;48.516;-2.768;2022-08-21T04:56:45;16.40;72.60
72814;DHT22;60945;48.516;-2.768;2022-08-21T04:59:17;16.50;72.50
72814;DHT22;60945;48.516;-2.768;2022-08-21T05:01:43;16.50;72.20
72814;DHT22;60945;48.516;-2.768;2022-08-21T05:04:10;16.60;71.80
72814;DHT22;60945;48.516;-2.768;2022-08-21T05:06:36;16.50;71.00
72814;DHT22;60945;48.516;-2.768;2022-08-21T05:09:04;16.40;71.50
72814;DHT22;60945;48.516;-2.768;2022-08-21T05:11:31;16.20;72.60
72814;DHT22;60945;48.516;-2.768;2022-08-21T05:13:56;16.20;72.80
72814;DHT22;60945;48.516;-2.768;2022-08-21T05:16:22;16.10;72.60
72814;DHT22;60945;48.516;-2.768;2022-08-21T05:18:48;16.10;72.80
72814;DHT22;60945;48.516;-2.768;2022-08-21T05:21:13;16.10;72.90
72814;DHT22;60945;48.516;-2.768;2022-08-21T05:23:39;16.10;72.50
72814;DHT22;60945;48.516;-2.768;2022-08-21T05:26:04;16.00;72.50
72814;DHT22;60945;48.516;-2.768;2022-08-21T05:28:30;16.20;72.40
72814;DHT22;60945;48.516;-2.768;2022-08-21T05:30:56;16.10;72.90
72814;DHT22;60945;48.516;-2.768;2022-08-21T05:33:22;16.20;72.70
72814;DHT22;60945;48.516;-2.768;2022-08-21T05:35:51;16.10;72.90
72814;DHT22;60945;48.516;-2.768;2022-08-21T05:38:17;16.30;72.70
72814;DHT22;60945;48.516;-2.768;2022-08-21T05:40:43;16.30;72.50
72814;DHT22;60945;48.516;-2.768;2022-08-21T05:43:09;16.40;72.00
72814;DHT22;60945;48.516;-2.768;2022-08-21T05:45:34;16.40;72.30
72814;DHT22;60945;48.516;-2.768;2022-08-21T05:50:55;16.50;71.80
72814;DHT22;60945;48.516;-2.768;2022-08-21T05:53:21;16.50;71.40
72814;DHT22;60945;48.516;-2.768;2022-08-21T05:55:47;16.50;71.50
72814;DHT22;60945;48.516;-2.768;2022-08-21T05:58:14;16.50;71.60
72814;DHT22;60945;48.516;-2.768;2022-08-21T06:00:40;16.50;71.70
72814;DHT22;60945;48.516;-2.768;2022-08-21T06:03:17;16.60;72.00
72814;DHT22;60945;48.516;-2.768;2022-08-21T06:05:44;16.60;71.80
72814;DHT22;60945;48.516;-2.768;2022-08-21T06:08:10;16.60;71.70
72814;DHT22;60945;48.516;-2.768;2022-08-21T06:10:36;16.60;71.50
72814;DHT22;60945;48.516;-2.768;2022-08-21T06:13:02;16.60;71.40
72814;DHT22;60945;48.516;-2.768;2022-08-21T06:15:27;16.70;71.50
72814;DHT22;60945;48.516;-2.768;2022-08-21T06:17:53;16.70;72.20
72814;DHT22;60945;48.516;-2.768;2022-08-21T06:20:19;16.80;71.90
72814;DHT22;60945;48.516;-2.768;2022-08-21T06:22:44;16.80;71.90
72814;DHT22;60945;48.516;-2.768;2022-08-21T06:25:10;16.90;71.20
72814;DHT22;60945;48.516;-2.768;2022-08-21T06:27:35;17.00;71.10
72814;DHT22;60945;48.516;-2.768;2022-08-21T06:30:01;17.10;69.90
72814;DHT22;60945;48.516;-2.768;2022-08-21T06:32:27;17.00;69.90
72814;DHT22;60945;48.516;-2.768;2022-08-21T06:34:52;17.10;69.90
72814;DHT22;60945;48.516;-2.768;2022-08-21T06:37:18;17.10;70.60
72814;DHT22;60945;48.516;-2.768;2022-08-21T06:39:43;17.00;70.40
72814;DHT22;60945;48.516;-2.768;2022-08-21T06:42:12;17.10;70.60
72814;DHT22;60945;48.516;-2.768;2022-08-21T06:44:38;17.20;69.80
72814;DHT22;60945;48.516;-2.768;2022-08-21T06:47:04;17.20;69.80
72814;DHT22;60945;48.516;-2.768;2022-08-21T06:49:29;17.40;69.20
72814;DHT22;60945;48.516;-2.768;2022-08-21T06:51:55;17.50;68.10
72814;DHT22;60945;48.516;-2.768;2022-08-21T06:54:20;17.50;69.40
72814;DHT22;60945;48.516;-2.768;2022-08-21T06:56:46;17.50;68.50
72814;DHT22;60945;48.516;-2.768;2022-08-21T06:59:11;17.60;67.60
72814;DHT22;60945;48.516;-2.768;2022-08-21T07:01:37;17.60;67.50
72814;DHT22;60945;48.516;-2.768;2022-08-21T07:04:02;17.60;67.90
72814;DHT22;60945;48.516;-2.768;2022-08-21T07:06:28;17.40;68.20
72814;DHT22;60945;48.516;-2.768;2022-08-21T07:08:54;17.30;68.80
72814;DHT22;60945;48.516;-2.768;2022-08-21T07:11:20;17.20;69.40
72814;DHT22;60945;48.516;-2.768;2022-08-21T07:13:46;17.30;69.50
72814;DHT22;60945;48.516;-2.768;2022-08-21T07:16:12;17.40;69.50
72814;DHT22;60945;48.516;-2.768;2022-08-21T07:18:37;17.60;69.10
72814;DHT22;60945;48.516;-2.768;2022-08-21T07:21:03;17.70;68.60
72814;DHT22;60945;48.516;-2.768;2022-08-21T07:23:30;17.90;68.10
72814;DHT22;60945;48.516;-2.768;2022-08-21T07:25:57;17.90;67.90
72814;DHT22;60945;48.516;-2.768;2022-08-21T07:28:22;18.00;67.50
72814;DHT22;60945;48.516;-2.768;2022-08-21T07:30:52;18.10;67.10
72814;DHT22;60945;48.516;-2.768;2022-08-21T07:33:18;18.20;66.80
72814;DHT22;60945;48.516;-2.768;2022-08-21T07:35:43;18.20;66.70
72814;DHT22;60945;48.516;-2.768;2022-08-21T07:38:09;18.20;66.50
72814;DHT22;60945;48.516;-2.768;2022-08-21T07:40:34;18.10;67.10
72814;DHT22;60945;48.516;-2.768;2022-08-21T07:43:00;18.10;66.60
72814;DHT22;60945;48.516;-2.768;2022-08-21T07:45:25;18.00;66.00
72814;DHT22;60945;48.516;-2.768;2022-08-21T07:47:51;18.00;66.50
72814;DHT22;60945;48.516;-2.768;2022-08-21T07:50:17;18.00;66.80
72814;DHT22;60945;48.516;-2.768;2022-08-21T07:52:43;18.10;69.30
72814;DHT22;60945;48.516;-2.768;2022-08-21T07:55:10;18.10;70.60
72814;DHT22;60945;48.516;-2.768;2022-08-21T07:57:36;18.10;70.30
72814;DHT22;60945;48.516;-2.768;2022-08-21T08:00:03;18.10;72.10
72814;DHT22;60945;48.516;-2.768;2022-08-21T08:02:29;18.10;73.20
72814;DHT22;60945;48.516;-2.768;2022-08-21T08:04:58;18.30;71.20
72814;DHT22;60945;48.516;-2.768;2022-08-21T08:07:24;18.30;67.60
72814;DHT22;60945;48.516;-2.768;2022-08-21T08:09:49;18.30;68.00
72814;DHT22;60945;48.516;-2.768;2022-08-21T08:12:15;18.30;68.50
72814;DHT22;60945;48.516;-2.768;2022-08-21T08:14:40;18.30;68.70
72814;DHT22;60945;48.516;-2.768;2022-08-21T08:17:06;18.20;68.90
72814;DHT22;60945;48.516;-2.768;2022-08-21T08:19:31;18.30;68.80
72814;DHT22;60945;48.516;-2.768;2022-08-21T08:21:57;18.30;69.10
72814;DHT22;60945;48.516;-2.768;2022-08-21T08:24:23;18.30;71.00
72814;DHT22;60945;48.516;-2.768;2022-08-21T08:26:48;18.20;73.10
72814;DHT22;60945;48.516;-2.768;2022-08-21T08:29:14;18.00;73.20
72814;DHT22;60945;48.516;-2.768;2022-08-21T08:31:39;17.90;70.20
72814;DHT22;60945;48.516;-2.768;2022-08-21T08:34:05;17.80;70.70
72814;DHT22;60945;48.516;-2.768;2022-08-21T08:36:32;17.70;71.50
72814;DHT22;60945;48.516;-2.768;2022-08-21T08:38:58;17.70;72.30
72814;DHT22;60945;48.516;-2.768;2022-08-21T08:41:24;17.80;72.10
72814;DHT22;60945;48.516;-2.768;2022-08-21T08:43:54;17.80;73.50
72814;DHT22;60945;48.516;-2.768;2022-08-21T08:46:31;17.70;74.20
72814;DHT22;60945;48.516;-2.768;2022-08-21T08:49:02;17.50;74.70
72814;DHT22;60945;48.516;-2.768;2022-08-21T08:51:51;17.50;75.50
72814;DHT22;60945;48.516;-2.768;2022-08-21T08:54:19;17.30;76.10
72814;DHT22;60945;48.516;-2.768;2022-08-21T08:56:46;17.10;76.70
72814;DHT22;60945;48.516;-2.768;2022-08-21T08:59:15;16.90;78.40
72814;DHT22;60945;48.516;-2.768;2022-08-21T09:01:42;17.00;79.00
72814;DHT22;60945;48.516;-2.768;2022-08-21T09:04:07;17.30;77.80
72814;DHT22;60945;48.516;-2.768;2022-08-21T09:06:44;17.40;77.40
72814;DHT22;60945;48.516;-2.768;2022-08-21T09:14:30;17.60;78.10
72814;DHT22;60945;48.516;-2.768;2022-08-21T09:17:10;17.40;78.30
72814;DHT22;60945;48.516;-2.768;2022-08-21T09:22:29;17.50;78.90
72814;DHT22;60945;48.516;-2.768;2022-08-21T09:27:38;17.60;78.90
72814;DHT22;60945;48.516;-2.768;2022-08-21T09:30:05;17.70;78.70
72814;DHT22;60945;48.516;-2.768;2022-08-21T09:32:32;17.90;78.00
72814;DHT22;60945;48.516;-2.768;2022-08-21T09:34:59;18.10;77.40
72814;DHT22;60945;48.516;-2.768;2022-08-21T09:37:25;18.10;77.90
72814;DHT22;60945;48.516;-2.768;2022-08-21T09:39:51;18.20;77.30
72814;DHT22;60945;48.516;-2.768;2022-08-21T09:42:53;18.20;77.20
72814;DHT22;60945;48.516;-2.768;2022-08-21T09:45:16;18.40;77.60
72814;DHT22;60945;48.516;-2.768;2022-08-21T09:47:42;18.50;76.70
72814;DHT22;60945;48.516;-2.768;2022-08-21T09:50:13;18.70;75.40
72814;DHT22;60945;48.516;-2.768;2022-08-21T09:53:14;18.80;74.70
72814;DHT22;60945;48.516;-2.768;2022-08-21T09:55:37;19.20;74.30
72814;DHT22;60945;48.516;-2.768;2022-08-21T09:58:29;19.40;73.90
72814;DHT22;60945;48.516;-2.768;2022-08-21T10:00:59;19.70;71.90
72814;DHT22;60945;48.516;-2.768;2022-08-21T10:03:25;19.60;71.60
72814;DHT22;60945;48.516;-2.768;2022-08-21T10:08:17;19.70;71.10
72814;DHT22;60945;48.516;-2.768;2022-08-21T10:10:43;19.80;70.50
72814;DHT22;60945;48.516;-2.768;2022-08-21T10:13:24;20.00;70.30
72814;DHT22;60945;48.516;-2.768;2022-08-21T10:15:56;20.00;71.00
72814;DHT22;60945;48.516;-2.768;2022-08-21T10:31:29;19.50;73.60
72814;DHT22;60945;48.516;-2.768;2022-08-21T10:36:52;19.30;74.70
72814;DHT22;60945;48.516;-2.768;2022-08-21T10:39:21;19.10;75.00
72814;DHT22;60945;48.516;-2.768;2022-08-21T10:42:06;19.10;75.70
72814;DHT22;60945;48.516;-2.768;2022-08-21T10:44:36;19.40;74.90
72814;DHT22;60945;48.516;-2.768;2022-08-21T10:49:47;19.90;73.90
72814;DHT22;60945;48.516;-2.768;2022-08-21T10:59:57;21.30;69.00
72814;DHT22;60945;48.516;-2.768;2022-08-21T11:02:27;21.40;67.70
72814;DHT22;60945;48.516;-2.768;2022-08-21T11:04:56;20.80;71.30
72814;DHT22;60945;48.516;-2.768;2022-08-21T11:09:51;20.90;72.10
72814;DHT22;60945;48.516;-2.768;2022-08-21T11:12:29;20.00;72.20
72814;DHT22;60945;48.516;-2.768;2022-08-21T11:17:26;20.10;72.80
72814;DHT22;60945;48.516;-2.768;2022-08-21T11:22:40;20.00;72.50
72814;DHT22;60945;48.516;-2.768;2022-08-21T11:25:17;20.80;70.00
72814;DHT22;60945;48.516;-2.768;2022-08-21T11:27:46;21.30;67.60
72814;DHT22;60945;48.516;-2.768;2022-08-21T11:30:14;21.30;67.10
72814;DHT22;60945;48.516;-2.768;2022-08-21T11:35:24;21.30;67.60
72814;DHT22;60945;48.516;-2.768;2022-08-21T11:38:00;21.10;68.50
72814;DHT22;60945;48.516;-2.768;2022-08-21T11:40:54;21.60;66.60
72814;DHT22;60945;48.516;-2.768;2022-08-21T11:51:09;22.80;64.20
72814;DHT22;60945;48.516;-2.768;2022-08-21T11:53:49;24.20;60.10
72814;DHT22;60945;48.516;-2.768;2022-08-21T11:56:19;25.40;56.00
72814;DHT22;60945;48.516;-2.768;2022-08-21T11:58:48;24.50;57.70
72814;DHT22;60945;48.516;-2.768;2022-08-21T12:01:22;24.30;57.70
72814;DHT22;60945;48.516;-2.768;2022-08-21T12:04:04;24.00;59.10
72814;DHT22;60945;48.516;-2.768;2022-08-21T12:06:33;24.90;55.70
72814;DHT22;60945;48.516;-2.768;2022-08-21T12:09:09;25.10;54.40
72814;DHT22;60945;48.516;-2.768;2022-08-21T12:11:46;24.60;55.60
72814;DHT22;60945;48.516;-2.768;2022-08-21T12:14:14;23.60;57.80
72814;DHT22;60945;48.516;-2.768;2022-08-21T12:16:41;23.30;59.40
72814;DHT22;60945;48.516;-2.768;2022-08-21T12:21:33;22.90;61.20
72814;DHT22;60945;48.516;-2.768;2022-08-21T12:29:16;22.70;62.00
72814;DHT22;60945;48.516;-2.768;2022-08-21T12:31:50;22.60;60.80
72814;DHT22;60945;48.516;-2.768;2022-08-21T12:34:17;23.40;60.20
72814;DHT22;60945;48.516;-2.768;2022-08-21T12:36:44;23.30;60.40
72814;DHT22;60945;48.516;-2.768;2022-08-21T12:39:14;23.40;60.50
72814;DHT22;60945;48.516;-2.768;2022-08-21T12:41:57;23.60;61.40
72814;DHT22;60945;48.516;-2.768;2022-08-21T12:44:57;23.70;59.10
72814;DHT22;60945;48.516;-2.768;2022-08-21T12:47:27;23.00;60.40
72814;DHT22;60945;48.516;-2.768;2022-08-21T12:50:02;23.00;60.30
72814;DHT22;60945;48.516;-2.768;2022-08-21T12:52:30;22.70;61.40
72814;DHT22;60945;48.516;-2.768;2022-08-21T12:54:56;22.80;60.10
72814;DHT22;60945;48.516;-2.768;2022-08-21T12:57:26;22.50;61.80
72814;DHT22;60945;48.516;-2.768;2022-08-21T12:59:56;22.90;60.80
72814;DHT22;60945;48.516;-2.768;2022-08-21T13:02:24;22.90;60.00
72814;DHT22;60945;48.516;-2.768;2022-08-21T13:04:50;22.80;60.30
72814;DHT22;60945;48.516;-2.768;2022-08-21T13:07:19;22.70;58.80
72814;DHT22;60945;48.516;-2.768;2022-08-21T13:09:48;23.10;59.00
72814;DHT22;60945;48.516;-2.768;2022-08-21T13:12:14;22.90;59.10
72814;DHT22;60945;48.516;-2.768;2022-08-21T13:14:41;22.20;61.20
72814;DHT22;60945;48.516;-2.768;2022-08-21T13:17:07;22.00;62.30
72814;DHT22;60945;48.516;-2.768;2022-08-21T13:19:33;22.10;61.60
72814;DHT22;60945;48.516;-2.768;2022-08-21T13:21:59;22.20;61.70
72814;DHT22;60945;48.516;-2.768;2022-08-21T13:24:26;22.60;62.40
72814;DHT22;60945;48.516;-2.768;2022-08-21T13:26:52;23.30;61.50
72814;DHT22;60945;48.516;-2.768;2022-08-21T13:29:21;23.10;60.80
72814;DHT22;60945;48.516;-2.768;2022-08-21T13:31:48;22.90;62.40
72814;DHT22;60945;48.516;-2.768;2022-08-21T13:34:14;23.30;60.20
72814;DHT22;60945;48.516;-2.768;2022-08-21T13:36:41;23.10;60.60
72814;DHT22;60945;48.516;-2.768;2022-08-21T13:39:08;22.80;60.90
72814;DHT22;60945;48.516;-2.768;2022-08-21T13:41:35;22.40;62.60
72814;DHT22;60945;48.516;-2.768;2022-08-21T13:44:13;21.80;65.00
72814;DHT22;60945;48.516;-2.768;2022-08-21T13:46:39;22.10;64.80
72814;DHT22;60945;48.516;-2.768;2022-08-21T13:49:05;22.10;63.00
72814;DHT22;60945;48.516;-2.768;2022-08-21T13:51:31;22.10;64.10
72814;DHT22;60945;48.516;-2.768;2022-08-21T13:53:57;21.80;65.20
72814;DHT22;60945;48.516;-2.768;2022-08-21T13:58:55;22.00;64.30
72814;DHT22;60945;48.516;-2.768;2022-08-21T14:03:48;21.80;65.30
72814;DHT22;60945;48.516;-2.768;2022-08-21T14:06:15;21.20;68.30
72814;DHT22;60945;48.516;-2.768;2022-08-21T14:08:46;20.90;71.60
72814;DHT22;60945;48.516;-2.768;2022-08-21T14:11:12;20.50;72.60
72814;DHT22;60945;48.516;-2.768;2022-08-21T14:16:10;20.50;73.10
72814;DHT22;60945;48.516;-2.768;2022-08-21T14:18:46;20.70;72.70
72814;DHT22;60945;48.516;-2.768;2022-08-21T14:21:12;20.70;72.40
72814;DHT22;60945;48.516;-2.768;2022-08-21T14:23:38;20.80;73.50
72814;DHT22;60945;48.516;-2.768;2022-08-21T14:26:04;21.30;71.80
72814;DHT22;60945;48.516;-2.768;2022-08-21T14:28:32;21.40;70.80
72814;DHT22;60945;48.516;-2.768;2022-08-21T14:30:59;21.40;69.50
72814;DHT22;60945;48.516;-2.768;2022-08-21T14:33:35;22.50;66.80
72814;DHT22;60945;48.516;-2.768;2022-08-21T14:36:01;23.30;64.20
72814;DHT22;60945;48.516;-2.768;2022-08-21T14:38:27;24.10;61.40
72814;DHT22;60945;48.516;-2.768;2022-08-21T14:41:00;24.60;59.30
72814;DHT22;60945;48.516;-2.768;2022-08-21T14:43:28;24.50;60.10
72814;DHT22;60945;48.516;-2.768;2022-08-21T14:45:55;24.40;58.90
72814;DHT22;60945;48.516;-2.768;2022-08-21T14:48:21;24.30;58.70
72814;DHT22;60945;48.516;-2.768;2022-08-21T14:50:46;25.20;56.60
72814;DHT22;60945;48.516;-2.768;2022-08-21T14:53:12;26.20;53.10
72814;DHT22;60945;48.516;-2.768;2022-08-21T14:55:38;26.50;51.90
72814;DHT22;60945;48.516;-2.768;2022-08-21T14:58:22;25.20;54.80
72814;DHT22;60945;48.516;-2.768;2022-08-21T15:00:49;24.10;58.60
72814;DHT22;60945;48.516;-2.768;2022-08-21T15:03:15;23.90;57.70
72814;DHT22;60945;48.516;-2.768;2022-08-21T15:05:41;23.70;58.40
72814;DHT22;60945;48.516;-2.768;2022-08-21T15:08:06;22.90;61.10
72814;DHT22;60945;48.516;-2.768;2022-08-21T15:10:32;22.80;62.50
72814;DHT22;60945;48.516;-2.768;2022-08-21T15:12:59;22.60;61.20
72814;DHT22;60945;48.516;-2.768;2022-08-21T15:15:24;22.00;63.40
72814;DHT22;60945;48.516;-2.768;2022-08-21T15:17:50;22.50;63.90
72814;DHT22;60945;48.516;-2.768;2022-08-21T15:20:15;22.40;62.10
72814;DHT22;60945;48.516;-2.768;2022-08-21T15:22:41;22.70;61.50
72814;DHT22;60945;48.516;-2.768;2022-08-21T15:25:07;23.40;59.20
72814;DHT22;60945;48.516;-2.768;2022-08-21T15:27:32;24.30;56.80
72814;DHT22;60945;48.516;-2.768;2022-08-21T15:29:59;24.40;55.80
72814;DHT22;60945;48.516;-2.768;2022-08-21T15:32:26;24.10;55.20
72814;DHT22;60945;48.516;-2.768;2022-08-21T15:34:53;24.00;56.60
72814;DHT22;60945;48.516;-2.768;2022-08-21T15:37:19;24.00;56.60
72814;DHT22;60945;48.516;-2.768;2022-08-21T15:39:45;23.50;57.60
72814;DHT22;60945;48.516;-2.768;2022-08-21T15:42:11;23.10;59.00
72814;DHT22;60945;48.516;-2.768;2022-08-21T15:44:38;23.00;58.60
72814;DHT22;60945;48.516;-2.768;2022-08-21T15:47:04;22.90;60.90
72814;DHT22;60945;48.516;-2.768;2022-08-21T15:49:30;23.00;62.20
72814;DHT22;60945;48.516;-2.768;2022-08-21T15:51:55;23.00;60.30
72814;DHT22;60945;48.516;-2.768;2022-08-21T15:54:21;22.80;61.90
72814;DHT22;60945;48.516;-2.768;2022-08-21T15:56:47;22.70;62.60
72814;DHT22;60945;48.516;-2.768;2022-08-21T15:59:15;22.20;63.50
72814;DHT22;60945;48.516;-2.768;2022-08-21T16:01:41;22.10;65.10
72814;DHT22;60945;48.516;-2.768;2022-08-21T16:04:07;21.90;64.20
72814;DHT22;60945;48.516;-2.768;2022-08-21T16:06:33;21.60;63.40
72814;DHT22;60945;48.516;-2.768;2022-08-21T16:08:59;21.40;64.40
72814;DHT22;60945;48.516;-2.768;2022-08-21T16:11:24;21.20;65.10
72814;DHT22;60945;48.516;-2.768;2022-08-21T16:13:50;21.10;65.70
72814;DHT22;60945;48.516;-2.768;2022-08-21T16:16:17;21.30;67.20
72814;DHT22;60945;48.516;-2.768;2022-08-21T16:18:43;21.30;66.30
72814;DHT22;60945;48.516;-2.768;2022-08-21T16:21:09;21.30;65.50
72814;DHT22;60945;48.516;-2.768;2022-08-21T16:23:35;21.30;68.00
72814;DHT22;60945;48.516;-2.768;2022-08-21T16:26:04;21.30;67.20
72814;DHT22;60945;48.516;-2.768;2022-08-21T16:28:30;21.50;67.00
72814;DHT22;60945;48.516;-2.768;2022-08-21T16:30:56;21.40;65.80
72814;DHT22;60945;48.516;-2.768;2022-08-21T16:33:25;21.20;65.80
72814;DHT22;60945;48.516;-2.768;2022-08-21T16:35:52;21.10;66.40
72814;DHT22;60945;48.516;-2.768;2022-08-21T16:38:17;21.10;67.20